Time;durP1;ratioP1;P1;durP2;ratioP2;P2;SDS_P1;SDS_P2;PMS_P1;PMS_P2;Temp;Humidity;BMP_temperature;BMP_pressure;BME280_temperature;BME280_humidity;BME280_pressure;Samples;Min_cycle;Max_cycle;Signal;HPM_P1;HPM_P2
2022/03/20 00:00:43;;;;;;;;;;;;;;;11.15;28.06;102596.63;5073720;28;19913;-75
2022/03/20 00:03:28;;;;;;;;;;;;;;;11.15;28.42;102602.09;5073756;28;19912;-76
2022/03/20 00:06:14;;;;;;;;;;;;;;;11.17;28.46;102604.53;5064565;28;20291;-75
2022/03/20 00:08:58;;;;;;;;;;;;;;;11.15;28.95;102606.72;5065331;28;20287;-75
2022/03/20 00:11:43;;;;;;;;;;;;;;;11.25;28.76;102609.44;5073484;28;19913;-76
2022/03/20 00:14:28;;;;;;;;;;;;;;;11.29;28.56;102606.97;5073586;28;20356;-76
2022/03/20 00:17:13;;;;;;;;;;;;;;;11.27;29.08;102611.88;5061746;28;19917;-76
2022/03/20 00:19:58;;;;;;;;;;;;;;;11.33;29.09;102608.88;5073271;28;19912;-75
2022/03/20 00:22:43;;;;;;;;;;;;;;;11.24;29.18;102606.97;5064745;28;19913;-75
2022/03/20 00:25:27;;;;;;;;;;;;;;;11.28;29.34;102599.88;5073509;28;19912;-76
2022/03/20 00:28:12;;;;;;;;;;;;;;;11.32;29.33;102601.00;5058842;28;19912;-75
2022/03/20 00:30:57;;;;;;;;;;;;;;;11.37;28.95;102603.72;5073161;28;19912;-75
2022/03/20 00:33:41;;;;;;;;;;;;;;;11.39;29.09;102604.22;5064780;28;19924;-75
2022/03/20 00:36:26;;;;;;;;;;;;;;;11.27;29.20;102609.16;5073110;28;19920;-76
2022/03/20 00:39:10;;;;;;;;;;;;;;;11.32;29.48;102612.69;5072925;28;19912;-77
2022/03/20 00:41:55;;;;;;;;;;;;;;;11.43;29.37;102614.31;5073035;28;19916;-76
2022/03/20 00:44:40;;;;;;;;;;;;;;;11.39;29.47;102606.97;5073077;28;19912;-76
2022/03/20 00:47:24;;;;;;;;;;;;;;;11.32;30.00;102612.69;5060783;28;20387;-76
2022/03/20 00:50:10;;;;;;;;;;;;;;;11.48;29.78;102617.03;5057733;28;19920;-75
2022/03/20 00:52:55;;;;;;;;;;;;;;;11.47;29.17;102609.13;5072876;28;19917;-76
2022/03/20 00:55:40;;;;;;;;;;;;;;;11.41;29.54;102605.59;5072743;28;19912;-75
2022/03/20 00:58:24;;;;;;;;;;;;;;;11.44;29.26;102605.03;5072931;28;19920;-76
2022/03/20 01:01:10;;;;;;;;;;;;;;;11.43;29.29;102605.31;5075283;28;19912;-75
2022/03/20 01:03:54;;;;;;;;;;;;;;;11.40;29.81;102614.03;5078384;28;20295;-75
2022/03/20 01:06:39;;;;;;;;;;;;;;;11.38;29.70;102613.50;5076789;28;19916;-75
2022/03/20 01:09:23;;;;;;;;;;;;;;;11.32;29.76;102615.44;5072680;28;19912;-76
2022/03/20 01:12:08;;;;;;;;;;;;;;;11.40;29.40;102616.75;5072803;28;19912;-76
2022/03/20 01:14:53;;;;;;;;;;;;;;;11.36;29.88;102612.97;5072680;28;19913;-75
2022/03/20 01:17:38;;;;;;;;;;;;;;;11.36;29.70;102618.41;5073798;28;20379;-76
2022/03/20 01:20:23;;;;;;;;;;;;;;;11.32;29.13;102620.06;5073474;28;19912;-75
2022/03/20 01:23:08;;;;;;;;;;;;;;;11.32;29.47;102614.59;5078279;28;19913;-75
2022/03/20 01:25:53;;;;;;;;;;;;;;;11.24;29.86;102617.84;5072568;28;19912;-75
2022/03/20 01:28:38;;;;;;;;;;;;;;;11.27;29.57;102620.06;5072580;28;19912;-75
2022/03/20 01:31:22;;;;;;;;;;;;;;;11.23;29.57;102616.22;5076546;28;19912;-76
2022/03/20 01:34:06;;;;;;;;;;;;;;;11.18;29.58;102611.59;5079958;28;20371;-76
2022/03/20 01:36:51;;;;;;;;;;;;;;;11.25;29.31;102614.06;5076239;28;19916;-75
2022/03/20 01:39:35;;;;;;;;;;;;;;;11.22;29.46;102612.72;5076437;28;19912;-75
2022/03/20 01:42:21;;;;;;;;;;;;;;;11.17;29.80;102604.53;5076422;28;19912;-75
2022/03/20 01:45:16;;;;;;;;;;;;;;;11.17;30.06;102609.16;5076318;28;20363;-76
2022/03/20 01:48:02;;;;;;;;;;;;;;;11.09;29.79;102607.78;5076533;28;19912;-75
2022/03/20 01:50:46;;;;;;;;;;;;;;;11.09;29.39;102596.91;5076284;28;19912;-75
2022/03/20 01:53:33;;;;;;;;;;;;;;;11.08;29.72;102597.97;5076462;28;20283;-76
2022/03/20 01:56:19;;;;;;;;;;;;;;;10.97;29.40;102599.09;5075989;28;19932;-75
2022/03/20 01:59:03;;;;;;;;;;;;;;;10.99;30.37;102596.91;5076610;28;19908;-75
2022/03/20 02:01:48;;;;;;;;;;;;;;;10.94;29.92;102596.91;5076100;28;19912;-75
2022/03/20 02:04:35;;;;;;;;;;;;;;;10.95;30.04;102590.38;5076014;28;19913;-76
2022/03/20 02:07:21;;;;;;;;;;;;;;;10.93;30.10;102593.34;5075874;28;19912;-76
2022/03/20 02:10:06;;;;;;;;;;;;;;;10.99;29.93;102595.00;5076037;28;19916;-76
2022/03/20 02:12:51;;;;;;;;;;;;;;;10.99;29.99;102592.28;5076011;28;19920;-75
2022/03/20 02:15:37;;;;;;;;;;;;;;;11.00;30.41;102599.34;5081666;28;19912;-76
2022/03/20 02:18:23;;;;;;;;;;;;;;;10.98;30.14;102601.53;5075520;28;19917;-76
2022/03/20 02:21:08;;;;;;;;;;;;;;;11.02;31.02;102605.31;5076036;28;20287;-75
2022/03/20 02:23:53;;;;;;;;;;;;;;;11.00;30.23;102599.34;5075710;28;19912;-76
2022/03/20 02:26:38;;;;;;;;;;;;;;;10.99;30.19;102597.72;5075688;28;19912;-75
2022/03/20 02:29:22;;;;;;;;;;;;;;;11.00;30.13;102598.53;5081534;28;19912;-75
2022/03/20 02:32:09;;;;;;;;;;;;;;;10.97;30.20;102599.88;5075649;28;19912;-76
2022/03/20 02:34:54;;;;;;;;;;;;;;;10.92;29.67;102588.19;5075401;28;19912;-75
2022/03/20 02:37:40;;;;;;;;;;;;;;;10.88;30.12;102590.63;5074987;28;19916;-76
2022/03/20 02:40:25;;;;;;;;;;;;;;;10.87;30.14;102591.72;5080330;28;19916;-76
2022/03/20 02:43:10;;;;;;;;;;;;;;;10.83;30.36;102596.06;5075125;28;19912;-76
2022/03/20 02:45:55;;;;;;;;;;;;;;;10.80;30.97;102593.91;5075323;28;19935;-76
2022/03/20 02:48:40;;;;;;;;;;;;;;;10.83;30.84;102589.81;5081027;28;19912;-76
2022/03/20 02:51:25;;;;;;;;;;;;;;;10.84;30.27;102597.72;5075229;28;19916;-76
2022/03/20 02:54:10;;;;;;;;;;;;;;;10.88;30.44;102596.06;5075264;28;20287;-75
2022/03/20 02:56:55;;;;;;;;;;;;;;;10.89;30.09;102588.72;5075193;28;19928;-76
2022/03/20 02:59:40;;;;;;;;;;;;;;;10.91;30.03;102592.81;5075077;28;19912;-76
2022/03/20 03:02:26;;;;;;;;;;;;;;;10.92;30.68;102599.88;5081031;28;19912;-76
2022/03/20 03:05:12;;;;;;;;;;;;;;;10.95;30.78;102596.63;5080705;28;20372;-76
2022/03/20 03:11:00;;;;;;;;;;;;;;;10.91;29.86;102601.00;5074777;28;19920;-76
2022/03/20 03:13:47;;;;;;;;;;;;;;;10.85;30.27;102604.78;5074801;28;20283;-76
2022/03/20 03:16:32;;;;;;;;;;;;;;;10.87;30.78;102609.97;5079387;28;20287;-77
2022/03/20 03:19:16;;;;;;;;;;;;;;;10.89;30.27;102602.34;5074624;28;20371;-76
2022/03/20 03:22:01;;;;;;;;;;;;;;;10.86;30.01;102605.59;5080259;28;19912;-76
2022/03/20 03:24:46;;;;;;;;;;;;;;;10.79;30.47;102608.59;5080338;28;19912;-77
2022/03/20 03:27:30;;;;;;;;;;;;;;;10.78;31.56;102614.28;5076442;28;19912;-77
2022/03/20 03:30:15;;;;;;;;;;;;;;;10.75;31.99;102617.56;5074727;28;19923;-76
2022/03/20 03:33:00;;;;;;;;;;;;;;;10.79;30.08;102611.31;5080365;28;19912;-76
2022/03/20 03:35:57;;;;;;;;;;;;;;;10.69;31.05;102617.56;5074656;28;19912;-76
2022/03/20 03:38:41;;;;;;;;;;;;;;;10.71;30.92;102612.66;5080211;22;19921;-74
2022/03/20 03:41:26;;;;;;;;;;;;;;;10.83;30.45;102620.56;5073934;28;19916;-74
2022/03/20 03:44:11;;;;;;;;;;;;;;;10.70;30.63;102621.09;5073914;28;20286;-74
2022/03/20 03:46:57;;;;;;;;;;;;;;;10.87;30.15;102621.66;5073820;28;20295;-74
2022/03/20 03:49:42;;;;;;;;;;;;;;;10.85;30.98;102623.84;5078680;28;20370;-74
2022/03/20 03:52:26;;;;;;;;;;;;;;;10.90;30.25;102620.31;5073470;28;19912;-75
2022/03/20 03:55:11;;;;;;;;;;;;;;;10.90;30.09;102615.69;5073722;28;19912;-74
2022/03/20 03:57:55;;;;;;;;;;;;;;;10.93;30.55;102623.28;5073485;28;19916;-74
2022/03/20 04:00:42;;;;;;;;;;;;;;;10.89;30.57;102613.22;5073494;28;19912;-74
2022/03/20 04:03:27;;;;;;;;;;;;;;;10.87;30.22;102627.09;5075075;28;19912;-75
2022/03/20 04:06:11;;;;;;;;;;;;;;;10.87;30.35;102632.53;5072555;28;19912;-74
2022/03/20 04:08:56;;;;;;;;;;;;;;;10.86;30.31;102635.53;5073453;28;19912;-74
2022/03/20 04:11:41;;;;;;;;;;;;;;;10.79;30.25;102629.53;5073566;28;19913;-74
2022/03/20 04:14:26;;;;;;;;;;;;;;;10.85;30.34;102637.44;5073289;28;19913;-75
2022/03/20 04:17:12;;;;;;;;;;;;;;;10.78;30.45;102626.00;5090402;28;19976;-74
2022/03/20 04:19:58;;;;;;;;;;;;;;;10.77;30.13;102632.50;5073219;28;19912;-74
2022/03/20 04:23:42;;;;;;;;;;;;;;;10.73;30.18;102632.25;5072868;28;19912;-74
2022/03/20 04:25:48;;;;;;;;;;;;;;;10.77;30.24;102635.25;5072911;28;19912;-74
2022/03/20 04:28:32;;;;;;;;;;;;;;;10.69;30.60;102631.16;5072964;28;19971;-75
2022/03/20 04:31:19;;;;;;;;;;;;;;;10.68;30.36;102636.84;5072985;28;19912;-74
2022/03/20 04:34:04;;;;;;;;;;;;;;;10.71;30.23;102639.06;5073045;28;19912;-74
2022/03/20 04:36:49;;;;;;;;;;;;;;;10.74;30.30;102630.34;5073989;28;19916;-74
2022/03/20 04:39:34;;;;;;;;;;;;;;;10.71;30.83;102631.72;5072881;28;19912;-74
2022/03/20 04:42:19;;;;;;;;;;;;;;;10.71;30.58;102633.63;5073269;28;19912;-74
2022/03/20 04:45:03;;;;;;;;;;;;;;;10.78;30.45;102638.78;5072655;28;19912;-75
2022/03/20 05:00:02;;;;;;;;;;;;;;;10.65;30.70;102642.84;5072571;28;19912;-74
2022/03/20 05:02:48;;;;;;;;;;;;;;;10.62;30.28;102643.38;5072822;28;19912;-74
2022/03/20 05:05:32;;;;;;;;;;;;;;;10.60;31.70;102642.84;5071981;28;19912;-74
2022/03/20 05:08:17;;;;;;;;;;;;;;;10.53;30.64;102647.69;5072832;28;20291;-74
2022/03/20 05:14:05;;;;;;;;;;;;;;;10.56;32.09;102658.06;5072606;28;20375;-74
2022/03/20 05:16:52;;;;;;;;;;;;;;;10.57;30.39;102654.22;5072428;28;19912;-74
2022/03/20 05:19:38;;;;;;;;;;;;;;;10.65;30.39;102668.16;5072696;28;19912;-74
2022/03/20 05:22:23;;;;;;;;;;;;;;;10.64;30.66;102671.13;5072504;28;19912;-74
2022/03/20 05:25:09;;;;;;;;;;;;;;;10.63;30.65;102670.31;5072750;28;19912;-74
2022/03/20 05:27:54;;;;;;;;;;;;;;;10.70;30.16;102675.50;5073167;28;19912;-74
2022/03/20 05:30:39;;;;;;;;;;;;;;;10.65;30.20;102672.78;5072431;28;19912;-74
2022/03/20 05:33:24;;;;;;;;;;;;;;;10.65;30.17;102672.78;5072401;28;19912;-74
2022/03/20 05:36:09;;;;;;;;;;;;;;;10.69;30.34;102677.41;5076677;28;19912;-74
2022/03/20 05:38:53;;;;;;;;;;;;;;;10.65;30.62;102680.94;5071986;28;19916;-74
2022/03/20 05:41:48;;;;;;;;;;;;;;;10.65;30.37;102679.03;5078066;28;19912;-74
2022/03/20 05:44:33;;;;;;;;;;;;;;;10.70;31.00;102687.22;5072234;28;20318;-74
2022/03/20 05:47:18;;;;;;;;;;;;;;;10.74;31.61;102687.50;5069755;28;20299;-75
2022/03/20 05:50:03;;;;;;;;;;;;;;;10.78;31.09;102694.03;5070442;28;19912;-74
2022/03/20 05:52:49;;;;;;;;;;;;;;;10.85;30.29;102681.00;5072177;28;19912;-74
2022/03/20 05:58:37;;;;;;;;;;;;;;;10.92;32.05;102692.41;5060452;28;19917;-74
2022/03/20 06:01:23;;;;;;;;;;;;;;;10.95;30.48;102688.34;5069669;28;20399;-75
2022/03/20 06:04:08;;;;;;;;;;;;;;;10.96;29.96;102696.28;5070845;28;20387;-74
2022/03/20 06:06:53;;;;;;;;;;;;;;;11.02;32.64;102700.59;5071733;28;19912;-73
2022/03/20 06:09:38;;;;;;;;;;;;;;;11.06;30.79;102690.84;5071397;28;19912;-75
2022/03/20 06:12:22;;;;;;;;;;;;;;;11.13;32.02;102699.53;5063252;28;19912;-74
2022/03/20 06:15:08;;;;;;;;;;;;;;;11.20;30.15;102703.91;5064836;28;19912;-74
2022/03/20 06:17:52;;;;;;;;;;;;;;;11.22;30.67;102701.75;5066806;28;19924;-74
2022/03/20 06:20:37;;;;;;;;;;;;;;;11.30;29.80;102707.47;5064584;28;20371;-74
2022/03/20 06:23:22;;;;;;;;;;;;;;;11.27;29.79;102708.03;5056183;28;19916;-74
2022/03/20 06:26:07;;;;;;;;;;;;;;;11.32;29.78;102709.94;5055627;28;20288;-73
2022/03/20 06:28:52;;;;;;;;;;;;;;;11.36;29.84;102703.66;5055354;28;19912;-73
2022/03/20 06:31:37;;;;;;;;;;;;;;;11.42;29.88;102704.50;5055356;28;20292;-73
2022/03/20 06:34:21;;;;;;;;;;;;;;;11.45;29.96;102707.47;5055441;28;19913;-73
2022/03/20 06:37:06;;;;;;;;;;;;;;;11.43;30.71;102712.38;5057907;28;19917;-73
2022/03/20 06:39:50;;;;;;;;;;;;;;;11.54;30.79;102718.63;5062890;28;19912;-73
2022/03/20 06:42:35;;;;;;;;;;;;;;;11.52;30.35;102718.13;5071658;28;19920;-73
2022/03/20 06:45:20;;;;;;;;;;;;;;;11.59;30.75;102722.19;5075138;28;19912;-74
2022/03/20 06:48:04;;;;;;;;;;;;;;;11.68;30.75;102725.19;5068336;28;19916;-73
2022/03/20 06:50:49;;;;;;;;;;;;;;;11.69;30.62;102724.09;5088795;28;19912;-73
2022/03/20 06:53:34;;;;;;;;;;;;;;;11.77;29.88;102733.66;5055053;28;19912;-73
2022/03/20 06:56:18;;;;;;;;;;;;;;;11.80;29.90;102735.84;5059423;28;19920;-73
2022/03/20 06:59:03;;;;;;;;;;;;;;;11.79;29.80;102740.47;5074620;28;19916;-73
2022/03/20 07:01:47;;;;;;;;;;;;;;;11.84;30.17;102742.38;5080049;28;19913;-73
2022/03/20 07:04:32;;;;;;;;;;;;;;;11.89;32.06;102734.19;5074134;28;19912;-73
2022/03/20 07:07:17;;;;;;;;;;;;;;;11.92;30.78;102736.38;5071855;28;19912;-73
2022/03/20 07:10:02;;;;;;;;;;;;;;;11.97;32.51;102737.19;5072414;28;19912;-73
2022/03/20 07:12:47;;;;;;;;;;;;;;;12.12;29.52;102744.53;5072319;28;19912;-73
2022/03/20 07:15:34;;;;;;;;;;;;;;;12.17;29.51;102743.69;5073931;28;19913;-73
2022/03/20 07:18:20;;;;;;;;;;;;;;;12.21;29.44;102751.06;5071412;28;19917;-73
2022/03/20 07:21:04;;;;;;;;;;;;;;;12.24;30.59;102752.41;5075643;28;19921;-73
2022/03/20 07:23:49;;;;;;;;;;;;;;;12.30;30.33;102748.56;5073422;28;19913;-73
2022/03/20 07:29:37;;;;;;;;;;;;;;;12.39;28.85;102746.94;5077605;28;19912;-74
2022/03/20 07:32:21;;;;;;;;;;;;;;;12.40;29.13;102754.00;5074659;28;19912;-74
2022/03/20 07:35:06;;;;;;;;;;;;;;;12.40;28.69;102760.28;5080435;28;19913;-74
2022/03/20 07:37:51;;;;;;;;;;;;;;;12.52;30.25;102757.25;5074012;28;19916;-74
2022/03/20 07:40:35;;;;;;;;;;;;;;;12.59;30.61;102757.78;5080150;28;19912;-74
2022/03/20 07:43:20;;;;;;;;;;;;;;;12.60;28.76;102764.84;5074290;28;19934;-75
2022/03/20 07:46:06;;;;;;;;;;;;;;;12.56;28.18;102754.75;5074249;28;19916;-75
2022/03/20 07:48:50;;;;;;;;;;;;;;;12.63;28.26;102758.84;5074076;28;19916;-75
2022/03/20 07:51:35;;;;;;;;;;;;;;;12.75;27.91;102761.22;5078302;28;19916;-75
2022/03/20 07:54:20;;;;;;;;;;;;;;;12.77;26.92;102764.50;5073717;28;19912;-75
2022/03/20 07:57:05;;;;;;;;;;;;;;;12.76;26.85;102762.88;5073500;28;19916;-75
2022/03/20 07:59:49;;;;;;;;;;;;;;;12.85;27.86;102756.53;5079308;28;19912;-75
2022/03/20 08:02:34;;;;;;;;;;;;;;;12.89;27.40;102762.28;5079371;28;19916;-75
2022/03/20 08:05:20;;;;;;;;;;;;;;;12.86;26.88;102750.00;5073820;28;19912;-75
2022/03/20 08:08:05;;;;;;;;;;;;;;;12.80;28.61;102753.84;5073439;28;19916;-75
2022/03/20 08:10:50;;;;;;;;;;;;;;;12.81;27.16;102750.00;5079075;28;20371;-75
2022/03/20 08:13:34;;;;;;;;;;;;;;;12.84;28.06;102754.94;5073384;28;20108;-75
2022/03/20 08:16:21;;;;;;;;;;;;;;;12.85;28.46;102755.72;5078382;28;19912;-75
2022/03/20 08:19:08;;;;;;;;;;;;;;;12.93;27.09;102757.88;5078634;28;19916;-75
2022/03/20 08:21:53;;;;;;;;;;;;;;;12.92;26.68;102752.69;5074224;28;19912;-75
2022/03/20 08:24:39;;;;;;;;;;;;;;;12.97;27.50;102755.41;5072824;28;19912;-75
2022/03/20 08:27:24;;;;;;;;;;;;;;;13.12;27.28;102767.09;5075196;28;19912;-75
2022/03/20 08:30:13;;;;;;;;;;;;;;;13.05;27.31;102763.84;5072766;28;19912;-75
2022/03/20 08:32:58;;;;;;;;;;;;;;;13.13;26.83;102762.44;5072900;28;19916;-75
2022/03/20 08:35:44;;;;;;;;;;;;;;;13.04;26.89;102764.13;5072879;28;20279;-74
2022/03/20 08:38:28;;;;;;;;;;;;;;;13.06;27.12;102760.00;5071694;28;20375;-74
2022/03/20 08:41:13;;;;;;;;;;;;;;;13.22;27.06;102747.91;5072071;28;19917;-74
2022/03/20 08:43:57;;;;;;;;;;;;;;;13.35;26.23;102745.66;5090262;28;19912;-74
2022/03/20 08:46:42;;;;;;;;;;;;;;;13.43;25.58;102748.59;5070446;28;19912;-74
2022/03/20 08:49:26;;;;;;;;;;;;;;;13.51;26.10;102755.38;5072509;28;19912;-73
2022/03/20 08:52:11;;;;;;;;;;;;;;;13.59;26.16;102749.28;5076065;28;19913;-74
2022/03/20 08:54:56;;;;;;;;;;;;;;;13.68;25.85;102753.03;5072594;28;19916;-74
2022/03/20 08:57:42;;;;;;;;;;;;;;;13.58;25.48;102745.75;5072430;28;20375;-74
2022/03/20 09:00:27;;;;;;;;;;;;;;;13.70;25.54;102746.19;5076131;28;19913;-74
2022/03/20 09:03:13;;;;;;;;;;;;;;;13.71;26.07;102749.75;5072653;28;20291;-74
2022/03/20 09:05:58;;;;;;;;;;;;;;;13.71;25.84;102747.81;5078419;28;19913;-74
2022/03/20 09:08:43;;;;;;;;;;;;;;;13.84;26.27;102740.06;5073033;28;20375;-74
2022/03/20 09:11:28;;;;;;;;;;;;;;;13.73;26.83;102733.03;5072604;28;19932;-74
2022/03/20 09:14:12;;;;;;;;;;;;;;;13.76;26.67;102743.41;5078246;28;19916;-74
2022/03/20 09:20:00;;;;;;;;;;;;;;;13.85;27.03;102741.69;5065039;28;19916;-74
2022/03/20 09:22:44;;;;;;;;;;;;;;;13.77;26.91;102731.34;5072433;28;19912;-75
2022/03/20 09:25:29;;;;;;;;;;;;;;;13.76;26.60;102729.75;5072417;28;20267;-74
2022/03/20 09:28:14;;;;;;;;;;;;;;;13.79;26.28;102723.69;5072606;28;19912;-74
2022/03/20 09:30:58;;;;;;;;;;;;;;;13.89;25.75;102729.06;5071457;28;19912;-74
2022/03/20 09:33:43;;;;;;;;;;;;;;;13.98;25.92;102730.06;5074296;28;20409;-74
2022/03/20 09:36:29;;;;;;;;;;;;;;;14.03;25.47;102732.75;5068501;28;19913;-74
2022/03/20 09:39:14;;;;;;;;;;;;;;;14.08;25.46;102735.44;5078589;28;19917;-74
2022/03/20 09:41:59;;;;;;;;;;;;;;;14.01;25.07;102730.31;5088516;28;19912;-74
2022/03/20 09:44:44;;;;;;;;;;;;;;;14.22;24.66;102739.09;5065310;28;19917;-74
2022/03/20 09:47:29;;;;;;;;;;;;;;;14.11;25.38;102741.16;5076616;28;19920;-75
2022/03/20 09:50:14;;;;;;;;;;;;;;;14.13;25.20;102738.13;5077656;22;19921;-84
2022/03/20 09:52:59;;;;;;;;;;;;;;;14.25;24.09;102741.28;5056748;28;20393;-86
2022/03/20 09:55:45;;;;;;;;;;;;;;;14.24;24.07;102738.81;5093562;28;19913;-87
2022/03/20 09:58:30;;;;;;;;;;;;;;;14.30;24.06;102738.50;5087062;28;19917;-85
2022/03/20 10:01:16;;;;;;;;;;;;;;;14.39;24.53;102736.78;5066024;28;19913;-84
2022/03/20 10:04:08;;;;;;;;;;;;;;;14.35;24.11;102730.22;5046195;28;19916;-83
2022/03/20 10:06:53;;;;;;;;;;;;;;;14.36;25.00;102731.88;5073056;28;19913;-83
2022/03/20 10:09:38;;;;;;;;;;;;;;;14.24;24.51;102728.69;5033950;28;19917;-84
2022/03/20 10:12:32;;;;;;;;;;;;;;;14.28;24.63;102735.22;5036457;28;19913;-84
2022/03/20 10:15:28;;;;;;;;;;;;;;;14.33;25.17;102723.41;5036235;28;19913;-85
2022/03/20 10:18:18;;;;;;;;;;;;;;;14.47;25.78;102733.41;5057782;28;19917;-84
2022/03/20 10:21:08;;;;;;;;;;;;;;;14.34;26.57;102728.59;5040354;28;19913;-83
2022/03/20 10:23:53;;;;;;;;;;;;;;;14.30;25.21;102730.28;5057692;28;19925;-86
2022/03/20 10:26:38;;;;;;;;;;;;;;;14.35;25.34;102729.41;5038072;28;19917;-85
2022/03/20 10:29:22;;;;;;;;;;;;;;;14.44;24.59;102728.50;5059384;28;19913;-90
2022/03/20 10:32:11;;;;;;;;;;;;;;;14.57;24.49;102720.69;5022408;28;19913;-84
2022/03/20 10:34:57;;;;;;;;;;;;;;;14.57;24.19;102724.25;5061796;28;19913;-83
2022/03/20 10:37:43;;;;;;;;;;;;;;;14.62;24.54;102726.94;5034529;28;19914;-88
2022/03/20 10:40:28;;;;;;;;;;;;;;;14.70;24.17;102728.19;5062860;28;19905;-93
2022/03/20 10:43:14;;;;;;;;;;;;;;;14.88;23.96;102730.16;5046837;28;19921;-87
2022/03/20 10:46:00;;;;;;;;;;;;;;;14.81;25.13;102726.94;5044675;28;19913;-88
2022/03/20 10:48:46;;;;;;;;;;;;;;;14.86;23.81;102726.88;5047064;28;19913;-90
2022/03/20 10:51:40;;;;;;;;;;;;;;;14.85;23.70;102725.25;5056374;28;19914;-89
2022/03/20 10:54:37;;;;;;;;;;;;;;;14.88;23.32;102721.94;5030856;28;19913;-83
2022/03/20 10:57:22;;;;;;;;;;;;;;;15.00;23.56;102719.56;5048268;28;19913;-84
2022/03/20 11:00:11;;;;;;;;;;;;;;;15.07;23.29;102720.00;5040437;28;20405;-86
2022/03/20 11:02:57;;;;;;;;;;;;;;;15.06;23.88;102721.09;5012036;28;20302;-87
2022/03/20 11:05:41;;;;;;;;;;;;;;;15.21;23.56;102720.88;5010312;28;19914;-87
2022/03/20 11:08:26;;;;;;;;;;;;;;;15.02;23.45;102722.81;5008789;28;19913;-85
2022/03/20 11:11:10;;;;;;;;;;;;;;;15.26;23.89;102718.06;5017582;28;19922;-85
2022/03/20 11:13:58;;;;;;;;;;;;;;;15.23;23.97;102718.66;5034419;28;19897;-85
2022/03/20 11:16:43;;;;;;;;;;;;;;;15.08;23.52;102716.16;5028870;28;20386;-86
2022/03/20 11:19:30;;;;;;;;;;;;;;;15.28;23.83;102696.66;5051613;28;19917;-89
2022/03/20 11:22:17;;;;;;;;;;;;;;;15.46;23.96;102708.69;5027038;28;19913;-83
2022/03/20 11:25:03;;;;;;;;;;;;;;;15.43;23.31;102712.06;5030912;28;19905;-90
2022/03/20 11:27:53;;;;;;;;;;;;;;;15.39;23.48;102700.84;5037584;28;19921;-84
2022/03/20 11:30:38;;;;;;;;;;;;;;;15.57;22.96;102698.41;5046443;28;19913;-85
2022/03/20 11:33:24;;;;;;;;;;;;;;;15.73;23.26;102705.25;5030090;28;19913;-84
2022/03/20 11:36:12;;;;;;;;;;;;;;;15.74;22.88;102691.25;5048480;28;19921;-91
2022/03/20 11:39:16;;;;;;;;;;;;;;;15.78;22.65;102696.94;5026090;28;19917;-87
2022/03/20 11:42:21;;;;;;;;;;;;;;;15.82;22.28;102687.00;5023862;28;19919;-85
2022/03/20 11:45:06;;;;;;;;;;;;;;;15.96;22.27;102682.31;5034620;28;19913;-83
2022/03/20 11:48:11;;;;;;;;;;;;;;;15.96;22.26;102687.00;5013892;28;20401;-82
2022/03/20 11:50:57;;;;;;;;;;;;;;;15.89;22.58;102681.13;5003404;28;19913;-81
2022/03/20 11:53:41;;;;;;;;;;;;;;;15.90;22.63;102669.81;5012047;28;19914;-85
2022/03/20 11:56:30;;;;;;;;;;;;;;;15.87;21.88;102667.69;5008855;28;19914;-82
2022/03/20 11:59:34;;;;;;;;;;;;;;;15.92;21.71;102670.34;5020328;28;20383;-82
2022/03/20 12:02:19;;;;;;;;;;;;;;;16.00;21.57;102675.09;5004687;28;19917;-83
2022/03/20 12:05:13;;;;;;;;;;;;;;;16.02;21.45;102669.31;5013300;28;19913;-83
2022/03/20 12:08:07;;;;;;;;;;;;;;;16.10;21.32;102666.69;5023519;28;19914;-84
2022/03/20 12:10:58;;;;;;;;;;;;;;;16.06;21.73;102665.66;5027592;28;19913;-86
2022/03/20 12:13:48;;;;;;;;;;;;;;;16.03;21.68;102655.31;5019512;28;19914;-81
2022/03/20 12:16:47;;;;;;;;;;;;;;;16.43;24.91;102661.06;5012276;28;19913;-79
2022/03/20 12:19:36;;;;;;;;;;;;;;;16.54;28.80;102662.50;4995087;28;19918;-78
2022/03/20 12:22:21;;;;;;;;;;;;;;;16.65;24.72;102658.44;4995595;28;19913;-79
2022/03/20 12:25:05;;;;;;;;;;;;;;;16.62;22.94;102661.78;5010596;28;19913;-76
2022/03/20 12:27:50;;;;;;;;;;;;;;;16.71;23.93;102653.66;5017608;28;19913;-79
2022/03/20 12:30:35;;;;;;;;;;;;;;;16.57;22.42;102642.63;5014004;28;20382;-78
2022/03/20 12:33:22;;;;;;;;;;;;;;;16.55;22.32;102644.91;5015098;28;19913;-79
2022/03/20 12:36:26;;;;;;;;;;;;;;;16.81;22.95;102643.22;5024013;28;20290;-78
2022/03/20 12:39:11;;;;;;;;;;;;;;;16.79;22.75;102644.66;5007218;28;19917;-78
2022/03/20 12:41:57;;;;;;;;;;;;;;;16.74;22.98;102636.53;5011569;28;20386;-79
2022/03/20 12:44:46;;;;;;;;;;;;;;;16.44;21.76;102644.31;5012476;28;19921;-78
2022/03/20 12:47:30;;;;;;;;;;;;;;;16.42;23.10;102640.22;5014022;28;19913;-77
2022/03/20 12:50:17;;;;;;;;;;;;;;;16.50;22.13;102629.34;5013573;28;19914;-79
2022/03/20 12:53:04;;;;;;;;;;;;;;;16.72;24.63;102634.06;5031732;28;19917;-78
2022/03/20 12:55:56;;;;;;;;;;;;;;;17.00;27.69;102635.63;5028782;28;20167;-78
2022/03/20 12:58:40;;;;;;;;;;;;;;;16.90;24.25;102638.63;5014063;28;19917;-78
2022/03/20 13:01:37;;;;;;;;;;;;;;;16.85;22.65;102629.69;5015459;28;19913;-77
2022/03/20 13:04:23;;;;;;;;;;;;;;;16.78;22.38;102626.53;5015506;28;19913;-79
2022/03/20 13:07:24;;;;;;;;;;;;;;;16.90;22.98;102624.06;5028864;28;19913;-78
2022/03/20 13:10:10;;;;;;;;;;;;;;;17.06;24.81;102623.38;5030214;28;19913;-78
2022/03/20 13:13:01;;;;;;;;;;;;;;;17.22;27.15;102625.75;5015324;28;19913;-78
2022/03/20 13:15:47;;;;;;;;;;;;;;;17.42;26.06;102617.78;5018366;28;19913;-78
2022/03/20 13:18:32;;;;;;;;;;;;;;;17.40;23.58;102617.28;5013403;28;19917;-77
2022/03/20 13:21:17;;;;;;;;;;;;;;;17.21;24.73;102618.63;5015729;28;20382;-78
2022/03/20 13:24:01;;;;;;;;;;;;;;;16.57;23.52;102615.16;5019029;28;20302;-79
2022/03/20 13:26:54;;;;;;;;;;;;;;;17.08;26.15;102614.81;5019900;28;19913;-78
2022/03/20 13:29:42;;;;;;;;;;;;;;;16.82;22.86;102611.88;5031709;28;19917;-78
2022/03/20 13:32:27;;;;;;;;;;;;;;;17.12;23.35;102604.03;5015567;28;20298;-80
2022/03/20 13:35:19;;;;;;;;;;;;;;;17.44;24.80;102609.22;4997572;28;19918;-78
2022/03/20 13:38:04;;;;;;;;;;;;;;;17.17;23.32;102601.16;4998403;28;19917;-77
2022/03/20 13:40:49;;;;;;;;;;;;;;;17.02;20.87;102618.81;5027016;28;19921;-80
2022/03/20 13:43:36;;;;;;;;;;;;;;;17.94;20.89;102599.59;5026514;28;19913;-84
2022/03/20 13:46:23;;;;;;;;;;;;;;;18.53;19.45;102600.06;5048779;28;19921;-87
2022/03/20 13:49:10;;;;;;;;;;;;;;;18.04;19.05;102605.94;5036722;28;19917;-83
2022/03/20 13:51:56;;;;;;;;;;;;;;;18.14;19.40;102598.19;5048794;28;19913;-86
2022/03/20 13:54:58;;;;;;;;;;;;;;;17.25;20.10;102592.13;5036501;28;19914;-81
2022/03/20 13:57:48;;;;;;;;;;;;;;;17.26;20.73;102583.56;5033867;28;19914;-84
2022/03/20 14:00:37;;;;;;;;;;;;;;;18.12;19.38;102586.69;5029043;28;19905;-82
2022/03/20 14:03:31;;;;;;;;;;;;;;;17.26;20.40;102582.75;5042963;28;19913;-81
2022/03/20 14:06:16;;;;;;;;;;;;;;;16.89;20.22;102582.03;5031735;28;19921;-81
2022/03/20 14:09:01;;;;;;;;;;;;;;;16.14;21.70;102590.88;5031700;28;19913;-83
2022/03/20 14:11:50;;;;;;;;;;;;;;;16.72;20.89;102581.88;5029466;28;19913;-81
2022/03/20 14:14:42;;;;;;;;;;;;;;;15.86;21.60;102586.50;5031551;28;19914;-82
2022/03/20 14:17:41;;;;;;;;;;;;;;;16.92;20.59;102581.38;5027970;28;19913;-81
2022/03/20 14:20:26;;;;;;;;;;;;;;;16.47;20.52;102577.75;5027920;28;19917;-82
2022/03/20 14:23:12;;;;;;;;;;;;;;;16.48;20.93;102573.09;5029817;28;19913;-82
2022/03/20 14:26:00;;;;;;;;;;;;;;;16.36;21.27;102570.06;5027947;28;19913;-82
2022/03/20 14:28:45;;;;;;;;;;;;;;;16.69;20.49;102566.03;5030135;28;20097;-91
2022/03/20 14:40:51;;;;;;;;;;;;;;;15.27;22.62;102566.19;5028838;28;19932;-85
2022/03/20 14:43:41;;;;;;;;;;;;;;;15.57;21.96;102572.25;5030562;28;19913;-84
2022/03/20 14:46:26;;;;;;;;;;;;;;;14.96;22.57;102560.44;5030552;28;19921;-83
2022/03/20 14:49:11;;;;;;;;;;;;;;;15.17;22.21;102568.31;5027437;28;19914;-82